createdAt,value
2018-09-03T00:01:11.486Z,3.03
2018-09-03T00:03:40.643Z,3.80
2018-09-03T00:06:09.730Z,3.63
2018-09-03T00:08:38.846Z,3.93
2018-09-03T00:11:08.242Z,2.63
2018-09-03T00:13:37.429Z,2.43
2018-09-03T00:16:06.549Z,2.40
2018-09-03T00:18:35.813Z,1.60
2018-09-03T00:21:04.886Z,1.77
2018-09-03T00:23:34.068Z,1.97
2018-09-03T00:26:03.239Z,2.10
2018-09-03T00:28:32.308Z,2.13
2018-09-03T00:31:06.840Z,2.17
2018-09-03T00:33:41.482Z,2.63
2018-09-03T00:36:15.814Z,2.77
2018-09-03T00:38:50.342Z,2.20
2018-09-03T00:41:24.866Z,2.57
2018-09-03T00:44:57.154Z,3.10
2018-09-03T00:47:26.290Z,1.60
2018-09-03T00:49:55.664Z,2.03
2018-09-03T00:52:25.035Z,2.40
2018-09-03T00:54:54.147Z,3.53
2018-09-03T00:57:23.351Z,2.27
2018-09-03T00:59:52.503Z,2.50
2018-09-03T01:02:21.791Z,2.47
2018-09-03T01:04:50.914Z,2.67
2018-09-03T01:07:20.055Z,2.30
2018-09-03T01:09:49.174Z,2.70
2018-09-03T01:12:18.259Z,3.27
2018-09-03T01:14:47.311Z,2.40
2018-09-03T01:17:16.396Z,3.00
2018-09-03T01:19:45.531Z,2.50
2018-09-03T01:22:14.741Z,2.73
2018-09-03T01:24:43.882Z,2.53
2018-09-03T01:27:12.974Z,4.07
2018-09-03T01:29:42.196Z,2.10
2018-09-03T01:32:11.444Z,2.40
2018-09-03T01:34:40.572Z,2.60
2018-09-03T01:37:09.571Z,2.87
2018-09-03T01:39:38.669Z,3.00
2018-09-03T01:42:07.730Z,2.97
2018-09-03T01:44:36.908Z,2.90
2018-09-03T01:47:05.999Z,3.17
2018-09-03T01:49:35.130Z,3.30
2018-09-03T01:52:04.216Z,2.10
2018-09-03T01:54:33.421Z,3.50
2018-09-03T01:57:02.486Z,3.07
2018-09-03T01:59:31.579Z,2.20
2018-09-03T02:02:00.733Z,2.37
2018-09-03T02:04:29.894Z,2.30
2018-09-03T02:06:59.014Z,3.47
2018-09-03T02:09:28.107Z,5.70
2018-09-03T02:11:57.266Z,2.40
2018-09-03T02:14:26.394Z,2.27
2018-09-03T02:16:55.511Z,2.83
2018-09-03T02:19:24.583Z,2.47
2018-09-03T02:21:53.678Z,3.37
2018-09-03T02:24:22.877Z,4.33
2018-09-03T02:26:52.204Z,3.13
2018-09-03T02:29:21.507Z,3.03
2018-09-03T02:31:50.670Z,3.83
2018-09-03T02:34:19.867Z,2.60
2018-09-03T02:36:49.038Z,4.93
2018-09-03T02:39:18.410Z,3.23
2018-09-03T02:41:47.497Z,2.60
2018-09-03T02:44:16.594Z,2.20
2018-09-03T02:46:45.723Z,7.73
2018-09-03T02:49:15.082Z,3.77
2018-09-03T02:51:44.879Z,4.47
2018-09-03T02:54:14.373Z,3.47
2018-09-03T02:56:43.822Z,4.00
2018-09-03T02:59:12.908Z,3.40
2018-09-03T03:01:42.092Z,5.07
2018-09-03T03:04:12.302Z,9.43
2018-09-03T03:06:42.032Z,6.53
2018-09-03T03:09:13.151Z,10.40
2018-09-03T03:11:42.872Z,12.10
2018-09-03T03:14:12.604Z,24.07
2018-09-03T03:16:42.018Z,21.17
2018-09-03T03:19:11.498Z,19.07
2018-09-03T03:21:42.558Z,21.97
2018-09-03T03:24:11.963Z,15.93
2018-09-03T03:26:42.680Z,15.30
2018-09-03T03:29:11.992Z,15.63
2018-09-03T03:31:41.074Z,18.97
2018-09-03T03:34:10.384Z,22.77
2018-09-03T03:36:39.471Z,15.60
2018-09-03T03:39:09.187Z,11.67
2018-09-03T03:41:38.317Z,15.53
2018-09-03T03:44:07.783Z,15.67
2018-09-03T03:46:36.883Z,12.33
2018-09-03T03:49:06.269Z,9.93
2018-09-03T03:51:35.477Z,13.07
2018-09-03T03:54:04.537Z,15.50
2018-09-03T03:56:33.871Z,10.90
2018-09-03T03:59:03.051Z,12.47
2018-09-03T04:01:32.168Z,12.73
2018-09-03T04:04:01.255Z,10.90
2018-09-03T04:06:30.387Z,7.27
2018-09-03T04:09:02.242Z,11.30
2018-09-03T04:11:32.373Z,9.03
2018-09-03T04:14:01.682Z,10.03
2018-09-03T04:16:31.347Z,9.57
2018-09-03T04:19:00.846Z,14.40
2018-09-03T04:21:30.229Z,8.30
2018-09-03T04:23:59.531Z,8.23
2018-09-03T04:26:28.867Z,6.80
2018-09-03T04:28:58.240Z,8.33
2018-09-03T04:31:27.523Z,9.63
2018-09-03T04:33:57.025Z,6.57
2018-09-03T04:36:26.545Z,8.17
2018-09-03T04:38:56.449Z,10.10
2018-09-03T04:41:25.575Z,9.30
2018-09-03T04:43:54.651Z,7.63
2018-09-03T04:46:23.779Z,7.40
2018-09-03T04:48:53.167Z,7.23
2018-09-03T04:51:22.280Z,7.53
2018-09-03T04:53:51.378Z,6.13
2018-09-03T04:56:20.491Z,8.03
2018-09-03T04:58:49.599Z,9.27
2018-09-03T05:01:18.963Z,8.53
2018-09-03T05:03:48.775Z,5.53
2018-09-03T05:06:17.831Z,7.13
2018-09-03T05:08:46.965Z,7.90
2018-09-03T05:11:16.052Z,8.00
2018-09-03T05:13:45.140Z,7.37
2018-09-03T05:16:14.456Z,9.10
2018-09-03T05:18:43.566Z,7.50
2018-09-03T05:21:12.676Z,5.97
2018-09-03T05:23:41.712Z,7.63
2018-09-03T05:26:10.820Z,7.27
2018-09-03T05:28:39.843Z,8.70
2018-09-03T05:31:08.982Z,5.40
2018-09-03T05:33:38.256Z,5.57
2018-09-03T05:36:07.544Z,6.47
2018-09-03T05:38:36.639Z,5.17
2018-09-03T05:41:05.855Z,6.93
2018-09-03T05:43:35.248Z,6.67
2018-09-03T05:46:04.412Z,7.37
2018-09-03T05:48:33.656Z,6.63
2018-09-03T05:51:02.724Z,5.57
2018-09-03T05:53:31.812Z,5.80
2018-09-03T05:56:00.912Z,10.03
2018-09-03T05:58:30.035Z,6.60
2018-09-03T06:00:59.127Z,5.73
2018-09-03T06:03:28.323Z,4.93
2018-09-03T06:05:57.444Z,6.87
2018-09-03T06:08:26.633Z,5.50
2018-09-03T06:10:55.736Z,7.00
2018-09-03T06:13:25.225Z,4.70
2018-09-03T06:15:54.293Z,6.13
2018-09-03T06:18:23.400Z,5.47
2018-09-03T06:20:52.467Z,4.60
2018-09-03T06:23:21.523Z,5.03
2018-09-03T06:25:50.695Z,5.90
2018-09-03T06:28:19.779Z,4.23
2018-09-03T06:30:48.897Z,5.57
2018-09-03T06:33:17.971Z,7.80
2018-09-03T06:35:47.211Z,6.40
2018-09-03T06:38:16.263Z,4.60
2018-09-03T06:40:45.363Z,11.27
2018-09-03T06:43:14.576Z,5.00
2018-09-03T06:45:43.663Z,4.70
2018-09-03T06:48:12.739Z,4.67
2018-09-03T06:50:41.863Z,6.63
2018-09-03T06:53:11.158Z,4.77
2018-09-03T06:55:40.228Z,6.37
2018-09-03T06:58:09.334Z,4.13
2018-09-03T07:00:38.557Z,4.93
2018-09-03T07:03:07.753Z,5.77
2018-09-03T07:05:36.783Z,6.20
2018-09-03T07:08:06.340Z,5.50
2018-09-03T07:10:35.535Z,3.90
2018-09-03T07:13:06.494Z,8.20
2018-09-03T07:15:36.359Z,3.97
2018-09-03T07:18:06.003Z,4.20
2018-09-03T07:20:35.643Z,4.90
2018-09-03T07:23:04.822Z,3.30
2018-09-03T07:25:33.919Z,5.57
2018-09-03T07:28:03.221Z,5.30
2018-09-03T07:30:32.295Z,5.47
2018-09-03T07:33:01.399Z,4.87
2018-09-03T07:35:30.530Z,4.00
2018-09-03T07:37:59.767Z,4.13
2018-09-03T07:40:28.911Z,5.73
2018-09-03T07:42:57.999Z,4.83
2018-09-03T07:45:27.076Z,4.87
2018-09-03T07:47:56.159Z,6.10
2018-09-03T07:50:25.271Z,3.70
2018-09-03T07:52:54.363Z,4.57
2018-09-03T07:55:23.447Z,4.87
2018-09-03T07:57:52.575Z,6.03
2018-09-03T08:00:21.611Z,7.00
2018-09-03T08:02:50.732Z,3.63
2018-09-03T08:05:19.868Z,6.33
2018-09-03T08:07:48.943Z,4.30
2018-09-03T08:10:18.019Z,4.47
2018-09-03T08:12:47.263Z,7.53
2018-09-03T08:15:16.544Z,5.13
2018-09-03T08:17:45.604Z,5.90
2018-09-03T08:20:14.751Z,7.83
2018-09-03T08:22:43.934Z,4.40
2018-09-03T08:25:13.016Z,5.10
2018-09-03T08:27:42.342Z,5.63
2018-09-03T08:30:11.564Z,6.80
2018-09-03T08:32:40.780Z,3.63
2018-09-03T08:35:09.892Z,5.80
2018-09-03T08:37:38.946Z,5.10
2018-09-03T08:40:08.144Z,7.03
2018-09-03T08:42:37.258Z,6.13
2018-09-03T08:45:06.592Z,6.73
2018-09-03T08:47:35.724Z,4.53
2018-09-03T08:50:08.720Z,14.13
2018-09-03T08:52:37.824Z,6.67
2018-09-03T08:55:07.005Z,10.70
2018-09-03T08:57:36.119Z,6.47
2018-09-03T09:00:05.404Z,6.63
2018-09-03T09:02:34.568Z,9.87
2018-09-03T09:05:03.912Z,6.17
2018-09-03T09:07:33.005Z,5.27
2018-09-03T09:10:02.202Z,6.27
2018-09-03T09:12:31.392Z,7.73
2018-09-03T09:15:00.567Z,7.37
2018-09-03T09:17:29.845Z,8.30
2018-09-03T09:19:59.256Z,7.90
2018-09-03T09:22:28.374Z,6.50
2018-09-03T09:24:57.586Z,5.73
2018-09-03T09:27:26.971Z,5.97
2018-09-03T09:29:56.049Z,4.23
2018-09-03T09:32:25.209Z,7.37
2018-09-03T09:34:54.320Z,4.83
2018-09-03T09:37:23.479Z,6.50
2018-09-03T09:39:52.836Z,4.00
2018-09-03T09:42:21.904Z,7.17
2018-09-03T09:44:51.069Z,6.47
2018-09-03T09:47:20.243Z,6.67
2018-09-03T09:49:49.390Z,5.43
2018-09-03T09:52:18.700Z,9.60
2018-09-03T09:54:47.912Z,7.90
2018-09-03T09:57:17.382Z,5.27
2018-09-03T09:59:46.560Z,4.87
2018-09-03T10:02:15.692Z,5.53
2018-09-03T10:04:44.877Z,4.53
2018-09-03T10:07:14.140Z,5.00
2018-09-03T10:09:43.378Z,6.83
2018-09-03T10:12:12.534Z,5.57
2018-09-03T10:14:41.733Z,4.03
2018-09-03T10:17:10.915Z,7.03
2018-09-03T10:19:40.144Z,7.87
2018-09-03T10:22:09.240Z,5.87
2018-09-03T10:24:38.439Z,8.03
2018-09-03T10:27:07.636Z,4.43
2018-09-03T10:29:36.832Z,8.73
2018-09-03T10:32:06.151Z,6.50
2018-09-03T10:34:35.451Z,4.60
2018-09-03T10:37:05.114Z,3.57
2018-09-03T10:39:34.251Z,5.83
2018-09-03T10:42:03.445Z,4.83
2018-09-03T10:44:32.795Z,4.93
2018-09-03T10:47:01.999Z,3.63
2018-09-03T10:49:31.267Z,5.13
2018-09-03T10:52:00.363Z,5.23
2018-09-03T10:54:29.548Z,12.07
2018-09-03T10:56:58.644Z,5.83
2018-09-03T10:59:27.782Z,4.80
2018-09-03T11:01:57.128Z,5.73
2018-09-03T11:04:26.342Z,6.30
2018-09-03T11:06:55.428Z,4.60
2018-09-03T11:09:24.622Z,4.97
2018-09-03T11:11:53.858Z,3.53
2018-09-03T11:14:23.212Z,7.10
2018-09-03T11:16:52.432Z,6.60
2018-09-03T11:19:24.060Z,4.83
2018-09-03T11:21:53.312Z,5.13
2018-09-03T11:24:22.590Z,4.67
2018-09-03T11:26:51.757Z,5.20
2018-09-03T11:29:21.680Z,4.23
2018-09-03T11:31:50.783Z,5.17
2018-09-03T11:34:19.963Z,5.43
2018-09-03T11:36:49.196Z,4.07
2018-09-03T11:39:18.401Z,3.80
2018-09-03T11:41:47.486Z,4.27
2018-09-03T11:44:16.634Z,3.20
2018-09-03T11:59:45.179Z,4.47
2018-09-03T12:02:14.341Z,4.03
2018-09-03T12:04:43.437Z,3.57
2018-09-03T12:07:12.503Z,3.60
2018-09-03T12:09:41.614Z,3.60
2018-09-03T12:12:10.844Z,4.67
2018-09-03T12:14:42.231Z,3.10
2018-09-03T12:17:11.421Z,4.73
2018-09-03T12:19:40.587Z,5.70
2018-09-03T12:22:09.680Z,3.67
2018-09-03T12:24:38.878Z,5.73
2018-09-03T12:27:08.063Z,10.37
2018-09-03T12:29:37.192Z,6.90
2018-09-03T12:32:06.455Z,4.33
2018-09-03T12:34:35.523Z,6.53
2018-09-03T12:37:04.829Z,5.17
2018-09-03T12:39:34.065Z,3.17
2018-09-03T12:42:03.153Z,3.60
2018-09-03T12:44:32.243Z,9.27
2018-09-03T12:47:01.414Z,4.40
2018-09-03T12:49:30.538Z,6.00
2018-09-03T12:51:59.637Z,3.47
2018-09-03T12:54:28.747Z,3.00
2018-09-03T12:56:57.807Z,3.63
2018-09-03T12:59:26.919Z,6.73
2018-09-03T13:01:56.091Z,3.97
2018-09-03T13:04:25.256Z,6.40
2018-09-03T13:06:54.537Z,4.37
2018-09-03T13:09:23.606Z,3.43
2018-09-03T13:11:52.677Z,3.40
2018-09-03T13:14:21.778Z,4.00
2018-09-03T13:16:50.915Z,5.27
2018-09-03T13:19:19.996Z,5.60
2018-09-03T13:21:48.995Z,5.00
2018-09-03T13:24:18.060Z,4.13
2018-09-03T13:26:47.299Z,3.70
2018-09-03T13:29:16.347Z,4.57
2018-09-03T13:31:45.490Z,3.77
2018-09-03T13:34:14.640Z,5.63
2018-09-03T13:36:43.784Z,5.33
2018-09-03T13:39:12.882Z,4.07
2018-09-03T13:41:41.993Z,6.33
2018-09-03T13:44:11.304Z,5.63
2018-09-03T13:46:41.500Z,5.20
2018-09-03T13:49:10.829Z,6.63
2018-09-03T13:51:40.022Z,5.13
2018-09-03T13:54:09.203Z,4.33
2018-09-03T13:56:38.436Z,3.50
2018-09-03T13:59:07.712Z,3.53
2018-09-03T14:01:36.886Z,4.93
2018-09-03T14:04:06.092Z,5.20
2018-09-03T14:06:35.216Z,4.27
2018-09-03T14:09:06.121Z,6.03
2018-09-03T14:11:35.364Z,6.57
2018-09-03T14:14:04.617Z,3.43
2018-09-03T14:16:34.052Z,5.53
2018-09-03T14:19:03.234Z,4.13
2018-09-03T14:21:32.350Z,4.10
2018-09-03T14:24:01.512Z,5.13
2018-09-03T14:26:30.657Z,5.43
2018-09-03T14:28:59.963Z,5.33
2018-09-03T14:31:29.113Z,3.53
2018-09-03T14:33:58.193Z,4.43
2018-09-03T14:36:27.278Z,3.90
2018-09-03T14:38:56.396Z,5.30
2018-09-03T14:41:25.500Z,6.47
2018-09-03T14:43:54.561Z,4.87
2018-09-03T14:46:23.786Z,7.57
2018-09-03T14:48:52.937Z,7.73
2018-09-03T14:51:22.081Z,6.50
2018-09-03T14:53:51.292Z,13.03
2018-09-03T14:56:20.434Z,9.53
2018-09-03T14:58:49.685Z,6.97
2018-09-03T15:01:18.810Z,8.77
2018-09-03T15:03:47.969Z,8.30
2018-09-03T15:06:17.284Z,9.50
2018-09-03T15:08:46.471Z,9.37
2018-09-03T15:11:15.571Z,13.77
2018-09-03T15:13:44.816Z,12.10
2018-09-03T15:16:13.956Z,5.47
2018-09-03T15:18:43.072Z,8.27
2018-09-03T15:21:12.276Z,5.60
2018-09-03T15:23:41.468Z,7.10
2018-09-03T15:26:10.734Z,5.90
2018-09-03T15:28:40.016Z,8.50
2018-09-03T15:31:09.867Z,8.30
2018-09-03T15:33:38.982Z,8.53
2018-09-03T15:36:08.232Z,6.30
2018-09-03T15:38:37.603Z,8.93
2018-09-03T15:41:06.930Z,6.53
2018-09-03T15:43:36.078Z,7.40
2018-09-03T15:46:06.456Z,7.37
2018-09-03T15:48:35.666Z,5.83
2018-09-03T15:51:05.265Z,7.90
2018-09-03T15:53:34.421Z,7.57
2018-09-03T15:56:03.985Z,8.00
2018-09-03T15:58:33.328Z,7.07
2018-09-03T16:01:02.495Z,8.53
2018-09-03T16:03:31.615Z,8.43
2018-09-03T16:06:00.793Z,6.80
2018-09-03T16:08:29.889Z,9.07
2018-09-03T16:10:58.997Z,9.23
2018-09-03T16:13:28.117Z,7.20
2018-09-03T16:15:57.269Z,8.73
2018-09-03T16:18:26.493Z,8.73
2018-09-03T16:20:55.630Z,7.30
2018-09-03T16:23:24.916Z,7.23
2018-09-03T16:25:54.084Z,10.70
2018-09-03T16:28:23.182Z,9.50
2018-09-03T16:30:52.424Z,10.20
2018-09-03T16:33:21.600Z,7.37
2018-09-03T16:35:50.763Z,5.93
2018-09-03T16:38:20.049Z,10.23
2018-09-03T16:40:49.179Z,12.83
2018-09-03T16:43:18.377Z,9.63
2018-09-03T16:45:47.497Z,7.80
2018-09-03T16:48:16.711Z,11.33
2018-09-03T16:50:46.026Z,10.27
2018-09-03T16:53:15.285Z,8.83
2018-09-03T16:55:44.496Z,11.77
2018-09-03T16:58:13.664Z,11.67
2018-09-03T17:00:42.861Z,9.67
2018-09-03T17:03:11.957Z,20.53
2018-09-03T17:05:41.419Z,94.70
2018-09-03T17:08:10.824Z,33.30
2018-09-03T17:10:40.100Z,48.13
2018-09-03T17:13:09.207Z,36.07
2018-09-03T17:15:38.376Z,20.93
2018-09-03T17:18:07.577Z,14.90
2018-09-03T17:20:36.749Z,19.67
2018-09-03T17:23:05.958Z,13.63
2018-09-03T17:25:35.189Z,16.27
2018-09-03T17:28:04.370Z,13.03
2018-09-03T17:30:33.481Z,11.73
2018-09-03T17:33:02.671Z,11.03
2018-09-03T17:35:31.829Z,13.20
2018-09-03T17:38:00.953Z,11.03
2018-09-03T17:40:30.145Z,9.00
2018-09-03T17:42:59.327Z,13.63
2018-09-03T17:45:28.557Z,12.00
2018-09-03T17:47:58.785Z,14.33
2018-09-03T17:50:27.917Z,15.43
2018-09-03T17:52:57.061Z,9.77
2018-09-03T17:55:26.237Z,22.43
2018-09-03T17:57:55.337Z,14.50
2018-09-03T18:00:24.539Z,14.47
2018-09-03T18:02:53.868Z,13.80
2018-09-03T18:05:23.037Z,15.37
2018-09-03T18:07:52.169Z,18.63
2018-09-03T18:10:21.269Z,12.53
2018-09-03T18:12:50.433Z,12.57
2018-09-03T18:15:19.693Z,15.40
2018-09-03T18:17:48.971Z,10.67
2018-09-03T18:20:18.089Z,16.13
2018-09-03T18:22:47.184Z,9.93
2018-09-03T18:25:16.301Z,14.13
2018-09-03T18:27:45.622Z,11.77
2018-09-03T18:30:14.880Z,12.53
2018-09-03T18:32:44.213Z,9.73
2018-09-03T18:35:13.338Z,17.57
2018-09-03T18:37:42.578Z,10.83
2018-09-03T18:40:11.802Z,12.07
2018-09-03T18:42:40.905Z,10.63
2018-09-03T18:45:10.313Z,12.13
2018-09-03T18:47:39.735Z,11.57
2018-09-03T18:50:10.614Z,15.13
2018-09-03T18:52:40.133Z,12.60
2018-09-03T18:55:09.716Z,11.77
2018-09-03T18:57:39.174Z,14.47
2018-09-03T19:00:08.831Z,13.77
2018-09-03T19:02:38.192Z,11.37
2018-09-03T19:05:07.379Z,12.93
2018-09-03T19:07:36.673Z,16.33
2018-09-03T19:10:06.391Z,10.30
2018-09-03T19:12:35.850Z,16.90
2018-09-03T19:15:05.213Z,12.70
2018-09-03T19:17:34.499Z,13.03
2018-09-03T19:20:03.557Z,15.03
2018-09-03T19:22:33.000Z,17.40
2018-09-03T19:25:02.179Z,12.53
2018-09-03T19:27:32.217Z,12.87
2018-09-03T19:30:01.444Z,17.20
2018-09-03T19:32:30.779Z,17.23
2018-09-03T19:34:59.889Z,12.80
2018-09-03T19:37:29.110Z,15.43
2018-09-03T19:39:58.209Z,14.73
2018-09-03T19:42:27.427Z,13.70
2018-09-03T19:44:56.544Z,12.13
2018-09-03T19:47:25.902Z,12.83
2018-09-03T19:49:55.114Z,14.40
2018-09-03T19:52:24.244Z,14.90
2018-09-03T19:54:53.332Z,13.30
2018-09-03T19:57:22.611Z,12.90
2018-09-03T19:59:51.804Z,13.40
2018-09-03T20:02:20.992Z,14.30
2018-09-03T20:04:50.784Z,15.13
2018-09-03T20:07:19.987Z,14.10
2018-09-03T20:09:50.769Z,16.40
2018-09-03T20:12:20.048Z,11.90
2018-09-03T20:14:49.252Z,13.37
2018-09-03T20:17:18.423Z,11.27
2018-09-03T20:19:47.834Z,12.87
2018-09-03T20:22:18.262Z,15.97
2018-09-03T20:24:47.365Z,12.67
2018-09-03T20:27:16.483Z,11.53
2018-09-03T20:29:45.736Z,11.20
2018-09-03T20:32:14.852Z,12.63
2018-09-03T20:34:43.946Z,15.77
2018-09-03T20:37:13.035Z,13.23
2018-09-03T20:39:42.112Z,13.43
2018-09-03T20:42:11.192Z,12.03
2018-09-03T20:44:40.343Z,16.00
2018-09-03T20:47:09.722Z,12.70
2018-09-03T20:49:38.828Z,15.43
2018-09-03T20:52:30.303Z,15.00
2018-09-03T20:55:00.421Z,10.90
2018-09-03T20:57:31.945Z,10.73
2018-09-03T21:00:01.048Z,11.67
2018-09-03T21:02:30.881Z,11.40
2018-09-03T21:05:01.567Z,9.70
2018-09-03T21:07:36.243Z,9.47
2018-09-03T21:10:11.375Z,10.80
2018-09-03T21:12:40.627Z,10.70
2018-09-03T21:15:09.979Z,10.23
2018-09-03T21:17:39.689Z,8.50
2018-09-03T21:20:10.425Z,10.13
2018-09-03T21:22:40.549Z,10.63
2018-09-03T21:25:09.756Z,10.97
2018-09-03T21:27:39.049Z,10.80
2018-09-03T21:30:09.546Z,13.50
2018-09-03T21:32:40.602Z,10.23
2018-09-03T21:35:10.553Z,10.20
2018-09-03T21:37:39.683Z,13.57
2018-09-03T21:40:08.912Z,11.03
2018-09-03T21:42:38.632Z,13.30
2018-09-03T21:45:10.073Z,10.50
2018-09-03T21:47:40.150Z,14.30
2018-09-03T21:50:09.236Z,10.93
2018-09-03T21:52:38.410Z,12.73
2018-09-03T21:55:08.414Z,14.20
2018-09-03T21:57:39.729Z,11.63
2018-09-03T22:00:10.992Z,10.33
2018-09-03T22:02:40.446Z,13.93
2018-09-03T22:06:39.786Z,13.10
2018-09-03T22:09:09.182Z,14.83
2018-09-03T22:11:43.569Z,12.23
2018-09-03T22:14:17.721Z,10.60
2018-09-03T22:16:46.890Z,10.57
2018-09-03T22:19:17.851Z,12.20
2018-09-03T22:21:47.118Z,11.03
2018-09-03T22:24:16.330Z,9.63
2018-09-03T22:26:45.426Z,11.07
2018-09-03T22:29:15.873Z,11.10
2018-09-03T22:31:47.055Z,12.30
2018-09-03T22:34:16.704Z,10.77
2018-09-03T22:36:45.836Z,10.27
2018-09-03T22:39:21.463Z,11.37
2018-09-03T22:41:57.776Z,10.13
2018-09-03T22:44:28.146Z,10.73
2018-09-03T22:46:57.684Z,10.00
2018-09-03T22:49:27.053Z,9.00
2018-09-03T22:51:57.381Z,10.37
2018-09-03T22:54:27.758Z,9.87
2018-09-03T22:56:57.598Z,13.50
2018-09-03T22:59:26.728Z,11.80
2018-09-03T23:01:55.779Z,10.97
2018-09-03T23:04:25.482Z,10.10
2018-09-03T23:06:56.513Z,11.30
2018-09-03T23:09:26.639Z,9.47
2018-09-03T23:11:55.761Z,9.50
2018-09-03T23:14:25.028Z,12.33
2018-09-03T23:16:54.324Z,9.97
2018-09-03T23:19:24.916Z,12.27
2018-09-03T23:21:55.976Z,9.83
2018-09-03T23:24:25.375Z,9.00
2018-09-03T23:26:54.750Z,12.03
2018-09-03T23:29:24.209Z,9.60
2018-09-03T23:31:55.761Z,10.00
2018-09-03T23:34:25.952Z,9.93
2018-09-03T23:36:55.259Z,10.47
2018-09-03T23:39:24.347Z,9.40
2018-09-03T23:41:53.496Z,12.80
2018-09-03T23:44:23.079Z,10.00
2018-09-03T23:46:53.898Z,10.27
2018-09-03T23:53:39.507Z,9.30
2018-09-03T23:56:10.604Z,9.90
2018-09-03T23:58:42.684Z,10.37
